createdAt,value
2022-08-19T00:00:28.885Z,7.65
2022-08-19T00:02:57.938Z,10.02
2022-08-19T00:05:30.248Z,6.13
2022-08-19T00:07:57.065Z,6.88
2022-08-19T00:10:29.448Z,7.47
2022-08-19T00:12:58.456Z,10.77
2022-08-19T00:15:29.432Z,10.73
2022-08-19T00:17:58.888Z,9.95
2022-08-19T00:20:29.288Z,9.82
2022-08-19T00:22:58.856Z,9.55
2022-08-19T00:25:30.536Z,7.47
2022-08-19T00:27:57.928Z,9.35
2022-08-19T00:30:30.400Z,8.50
2022-08-19T00:33:00.136Z,8.50
2022-08-19T00:35:33.293Z,7.45
2022-08-19T00:38:03.227Z,7.63
2022-08-19T00:40:32.698Z,8.55
2022-08-19T00:42:59.651Z,8.60
2022-08-19T00:45:32.784Z,11.07
2022-08-19T00:48:15.064Z,6.80
2022-08-19T00:50:51.628Z,9.00
2022-08-19T00:53:23.734Z,9.07
2022-08-19T00:55:52.493Z,8.80
2022-08-19T00:58:23.627Z,8.57
2022-08-19T01:00:50.737Z,9.00
2022-08-19T01:03:21.739Z,8.32
2022-08-19T01:05:52.740Z,6.80
2022-08-19T01:08:20.292Z,9.48
2022-08-19T01:10:51.826Z,7.90
2022-08-19T01:13:21.988Z,7.15
2022-08-19T01:15:54.946Z,7.88
2022-08-19T01:18:22.035Z,10.93
2022-08-19T01:20:49.285Z,6.35
2022-08-19T01:23:16.828Z,6.85
2022-08-19T01:25:48.588Z,8.50
2022-08-19T01:28:33.656Z,9.68
2022-08-19T01:31:08.013Z,7.50
2022-08-19T01:33:38.051Z,7.50
2022-08-19T01:36:25.291Z,7.25
2022-08-19T01:38:55.057Z,7.70
2022-08-19T01:41:24.686Z,8.52
2022-08-19T01:44:12.347Z,7.90
2022-08-19T01:46:44.811Z,7.65
2022-08-19T01:49:16.941Z,7.72
2022-08-19T01:51:49.320Z,9.52
2022-08-19T01:54:23.066Z,10.85
2022-08-19T01:56:59.262Z,8.98
2022-08-19T01:59:26.262Z,7.10
2022-08-19T02:01:58.211Z,9.07
2022-08-19T02:04:28.391Z,7.32
2022-08-19T02:06:59.061Z,11.95
2022-08-19T02:09:25.826Z,7.95
2022-08-19T02:11:58.462Z,8.00
2022-08-19T02:14:31.405Z,8.52
2022-08-19T02:17:01.852Z,7.10
2022-08-19T02:19:33.828Z,11.00
2022-08-19T02:22:03.619Z,8.05
2022-08-19T02:24:33.520Z,8.82
2022-08-19T02:27:03.361Z,8.75
2022-08-19T02:29:30.219Z,9.23
2022-08-19T02:32:00.747Z,9.57
2022-08-19T02:34:30.399Z,9.25
2022-08-19T02:37:03.450Z,10.68
2022-08-19T02:39:33.201Z,8.80
2022-08-19T02:42:00.850Z,7.53
2022-08-19T02:44:31.276Z,8.95
2022-08-19T02:47:01.908Z,8.32
2022-08-19T02:49:35.381Z,7.90
2022-08-19T02:52:08.181Z,7.68
2022-08-19T02:54:37.501Z,8.13
2022-08-19T02:57:17.969Z,12.80
2022-08-19T02:59:47.147Z,7.88
2022-08-19T03:02:17.501Z,7.20
2022-08-19T03:04:48.858Z,7.40
2022-08-19T03:07:19.616Z,8.32
2022-08-19T03:09:46.617Z,8.40
2022-08-19T03:12:14.041Z,9.15
2022-08-19T03:14:43.746Z,6.65
2022-08-19T03:17:14.146Z,6.80
2022-08-19T03:19:46.285Z,7.28
2022-08-19T03:22:15.573Z,8.73
2022-08-19T03:24:42.457Z,8.48
2022-08-19T03:27:13.640Z,8.40
2022-08-19T03:29:44.079Z,7.90
2022-08-19T03:32:27.909Z,7.32
2022-08-19T03:35:03.805Z,7.35
2022-08-19T03:37:36.858Z,7.00
2022-08-19T03:40:06.742Z,7.50
2022-08-19T03:42:48.564Z,9.27
2022-08-19T03:45:16.473Z,7.80
2022-08-19T03:47:43.297Z,7.30
2022-08-19T03:50:10.345Z,5.97
2022-08-19T03:52:40.561Z,5.97
2022-08-19T03:55:14.795Z,6.53
2022-08-19T03:57:46.315Z,14.10
2022-08-19T04:00:19.133Z,6.45
2022-08-19T04:03:00.269Z,12.30
2022-08-19T04:05:29.732Z,7.95
2022-08-19T04:08:02.318Z,8.25
2022-08-19T04:10:34.393Z,7.75
2022-08-19T04:13:06.604Z,8.00
2022-08-19T04:15:43.668Z,9.00
2022-08-19T04:18:11.346Z,14.07
2022-08-19T04:20:47.308Z,7.95
2022-08-19T04:23:16.371Z,7.38
2022-08-19T04:25:44.114Z,8.85
2022-08-19T04:28:12.155Z,8.95
2022-08-19T04:30:52.051Z,10.30
2022-08-19T04:33:26.506Z,5.80
2022-08-19T04:35:58.678Z,8.85
2022-08-19T04:38:27.899Z,7.97
2022-08-19T04:41:13.201Z,9.27
2022-08-19T04:43:49.776Z,8.27
2022-08-19T04:46:39.030Z,9.25
2022-08-19T04:49:13.197Z,11.85
2022-08-19T04:51:42.770Z,7.97
2022-08-19T04:54:09.734Z,8.32
2022-08-19T04:56:39.659Z,8.02
2022-08-19T04:59:06.362Z,9.25
2022-08-19T05:01:37.589Z,5.75
2022-08-19T05:04:07.760Z,9.10
2022-08-19T05:06:35.034Z,8.60
2022-08-19T05:09:05.243Z,8.90
2022-08-19T05:11:35.519Z,6.75
2022-08-19T05:14:02.725Z,7.57
2022-08-19T05:16:32.058Z,7.18
2022-08-19T05:19:17.392Z,6.60
2022-08-19T05:22:06.518Z,6.90
2022-08-19T05:24:44.043Z,8.02
2022-08-19T05:27:20.560Z,8.15
2022-08-19T05:29:52.767Z,6.28
2022-08-19T05:32:19.432Z,6.85
2022-08-19T05:34:48.883Z,9.20
2022-08-19T05:37:16.395Z,7.90
2022-08-19T05:39:43.432Z,8.73
2022-08-19T05:42:15.532Z,7.70
2022-08-19T05:44:50.261Z,7.65
2022-08-19T05:47:21.181Z,10.27
2022-08-19T05:49:48.682Z,7.10
2022-08-19T05:52:18.894Z,8.35
2022-08-19T05:54:51.247Z,7.13
2022-08-19T05:57:19.502Z,7.35
2022-08-19T05:59:53.131Z,6.57
2022-08-19T06:02:30.627Z,6.25
2022-08-19T06:05:00.250Z,6.43
2022-08-19T06:07:30.260Z,8.55
2022-08-19T06:10:00.000Z,8.65
2022-08-19T06:12:35.335Z,8.77
2022-08-19T06:15:06.445Z,7.47
2022-08-19T06:17:35.945Z,8.90
2022-08-19T06:20:08.729Z,7.75
2022-08-19T06:22:46.265Z,5.97
2022-08-19T06:25:15.753Z,8.63
2022-08-19T06:30:35.486Z,8.63
2022-08-19T06:33:07.853Z,8.95
2022-08-19T06:35:39.741Z,7.05
2022-08-19T06:38:06.732Z,9.43
2022-08-19T06:40:37.491Z,10.48
2022-08-19T06:43:08.625Z,8.60
2022-08-19T06:45:41.901Z,10.43
2022-08-19T06:48:08.805Z,10.10
2022-08-19T06:50:44.815Z,8.82
2022-08-19T06:53:14.257Z,9.15
2022-08-19T06:55:42.263Z,8.63
2022-08-19T06:58:12.016Z,10.18
2022-08-19T07:00:41.765Z,8.15
2022-08-19T07:03:13.311Z,8.10
2022-08-19T07:05:47.238Z,9.60
2022-08-19T07:08:18.431Z,7.40
2022-08-19T07:10:51.128Z,12.45
2022-08-19T07:13:17.933Z,11.80
2022-08-19T07:15:51.027Z,10.52
2022-08-19T07:18:23.183Z,14.82
2022-08-19T07:20:53.168Z,10.02
2022-08-19T07:23:22.667Z,8.77
2022-08-19T07:25:53.375Z,9.50
2022-08-19T07:28:24.259Z,10.45
2022-08-19T07:30:57.246Z,11.50
2022-08-19T07:33:28.046Z,8.20
2022-08-19T07:36:00.817Z,11.10
2022-08-19T07:38:29.954Z,12.90
2022-08-19T07:41:00.054Z,11.70
2022-08-19T07:43:34.936Z,16.45
2022-08-19T07:46:04.846Z,7.53
2022-08-19T07:48:32.358Z,8.10
2022-08-19T07:51:02.874Z,13.82
2022-08-19T07:53:39.690Z,11.23
2022-08-19T07:56:12.726Z,10.07
2022-08-19T07:58:40.773Z,9.15
2022-08-19T08:01:08.456Z,10.38
2022-08-19T08:03:54.055Z,13.90
2022-08-19T08:06:43.207Z,6.70
2022-08-19T08:09:16.677Z,8.98
2022-08-19T08:11:50.851Z,11.75
2022-08-19T08:14:28.996Z,12.85
2022-08-19T08:16:59.476Z,15.45
2022-08-19T08:19:31.577Z,12.00
2022-08-19T08:21:59.471Z,13.13
2022-08-19T08:24:32.155Z,10.20
2022-08-19T08:27:03.320Z,13.60
2022-08-19T08:29:43.167Z,10.38
2022-08-19T08:32:14.051Z,12.73
2022-08-19T08:34:47.444Z,13.93
2022-08-19T08:37:24.167Z,6.18
2022-08-19T08:39:53.854Z,12.77
2022-08-19T08:42:27.615Z,13.90
2022-08-19T08:45:12.887Z,10.82
2022-08-19T08:47:57.320Z,8.73
2022-08-19T08:50:37.358Z,13.15
2022-08-19T08:53:09.624Z,17.83
2022-08-19T08:55:41.783Z,13.68
2022-08-19T08:58:29.522Z,8.88
2022-08-19T09:00:56.536Z,15.55
2022-08-19T09:03:28.092Z,15.05
2022-08-19T09:06:03.705Z,16.88
2022-08-19T09:08:51.600Z,17.17
2022-08-19T09:11:42.693Z,12.77
2022-08-19T09:14:49.213Z,10.57
2022-08-19T09:17:14.439Z,12.23
2022-08-19T09:19:52.429Z,11.57
2022-08-19T09:22:26.000Z,17.75
2022-08-19T09:24:57.507Z,15.70
2022-08-19T09:27:43.000Z,12.48
2022-08-19T09:30:15.900Z,15.63
2022-08-19T09:32:52.857Z,13.73
2022-08-19T09:35:23.705Z,12.07
2022-08-19T09:37:52.366Z,14.88
2022-08-19T09:40:25.121Z,13.48
2022-08-19T09:42:54.750Z,13.30
2022-08-19T09:45:23.189Z,14.77
2022-08-19T09:47:54.945Z,18.38
2022-08-19T09:50:27.021Z,15.25
2022-08-19T09:52:57.343Z,15.00
2022-08-19T09:55:31.850Z,11.35
2022-08-19T09:58:05.198Z,11.35
2022-08-19T10:00:32.632Z,12.68
2022-08-19T10:02:59.710Z,11.38
2022-08-19T10:05:48.389Z,13.70
2022-08-19T10:08:20.690Z,11.85
2022-08-19T10:10:48.457Z,11.95
2022-08-19T10:13:16.640Z,17.73
2022-08-19T10:15:47.961Z,11.60
2022-08-19T10:18:19.559Z,9.30
2022-08-19T10:20:55.724Z,13.07
2022-08-19T10:23:26.037Z,12.07
2022-08-19T10:25:54.789Z,8.90
2022-08-19T10:28:25.232Z,12.10
2022-08-19T10:30:55.482Z,13.13
2022-08-19T10:33:38.599Z,10.40
2022-08-19T10:36:16.697Z,10.30
2022-08-19T10:38:54.802Z,10.02
2022-08-19T10:41:29.332Z,10.60
2022-08-19T10:44:04.386Z,12.13
2022-08-19T10:46:34.751Z,6.70
2022-08-19T10:49:06.110Z,7.93
2022-08-19T10:51:55.035Z,9.88
2022-08-19T10:54:31.410Z,10.20
2022-08-19T10:57:02.324Z,7.70
2022-08-19T10:59:35.269Z,13.65
2022-08-19T11:02:06.981Z,8.98
2022-08-19T11:04:34.511Z,8.10
2022-08-19T11:07:06.201Z,8.52
2022-08-19T11:09:37.228Z,7.25
2022-08-19T11:12:04.969Z,7.90
2022-08-19T11:14:38.901Z,10.25
2022-08-19T11:17:06.461Z,9.30
2022-08-19T11:19:35.711Z,10.00
2022-08-19T11:22:04.905Z,8.05
2022-08-19T11:24:31.849Z,7.32
2022-08-19T11:27:04.986Z,8.95
2022-08-19T11:29:35.488Z,8.75
2022-08-19T11:32:07.910Z,11.13
2022-08-19T11:34:38.523Z,11.35
2022-08-19T11:37:07.008Z,8.05
2022-08-19T11:39:38.725Z,8.30
2022-08-19T11:42:27.850Z,7.07
2022-08-19T11:44:54.949Z,6.15
2022-08-19T11:47:22.636Z,5.18
2022-08-19T11:49:49.797Z,4.10
2022-08-19T11:52:19.276Z,3.58
2022-08-19T11:54:52.146Z,4.15
2022-08-19T11:57:20.921Z,4.25
2022-08-19T11:59:51.758Z,3.85
2022-08-19T12:02:22.777Z,3.72
2022-08-19T12:04:55.976Z,3.80
2022-08-19T12:07:26.184Z,5.95
2022-08-19T12:09:55.880Z,3.30
2022-08-19T12:12:25.956Z,2.75
2022-08-19T12:14:58.076Z,3.25
2022-08-19T12:17:28.520Z,3.53
2022-08-19T12:19:57.525Z,3.40
2022-08-19T12:22:24.400Z,2.92
2022-08-19T12:24:55.158Z,2.83
2022-08-19T12:27:32.374Z,3.40
2022-08-19T12:30:08.579Z,3.17
2022-08-19T12:32:38.882Z,3.65
2022-08-19T12:35:09.480Z,4.18
2022-08-19T12:37:42.046Z,3.25
2022-08-19T12:40:09.846Z,6.40
2022-08-19T12:42:43.680Z,4.28
2022-08-19T12:45:14.350Z,2.72
2022-08-19T12:47:46.145Z,4.78
2022-08-19T12:50:14.532Z,5.78
2022-08-19T12:52:47.041Z,3.60
2022-08-19T12:55:13.948Z,3.72
2022-08-19T12:57:43.740Z,6.32
2022-08-19T13:00:14.862Z,3.67
2022-08-19T13:02:45.880Z,4.43
2022-08-19T13:05:14.762Z,4.40
2022-08-19T13:07:45.077Z,3.53
2022-08-19T13:10:13.749Z,2.88
2022-08-19T13:12:43.641Z,3.83
2022-08-19T13:15:23.007Z,6.22
2022-08-19T13:17:54.257Z,4.38
2022-08-19T13:20:24.205Z,3.83
2022-08-19T13:22:54.401Z,4.20
2022-08-19T13:25:24.107Z,3.63
2022-08-19T13:27:56.308Z,4.70
2022-08-19T13:30:44.151Z,5.57
2022-08-19T13:33:17.531Z,3.72
2022-08-19T13:35:54.001Z,3.15
2022-08-19T13:38:24.163Z,3.53
2022-08-19T13:40:57.548Z,4.65
2022-08-19T13:43:26.924Z,5.65
2022-08-19T13:45:59.436Z,3.42
2022-08-19T13:48:30.164Z,3.55
2022-08-19T13:51:02.556Z,3.78
2022-08-19T13:53:35.028Z,4.35
2022-08-19T13:56:08.516Z,4.82
2022-08-19T13:58:38.356Z,3.60
2022-08-19T14:01:10.980Z,3.60
2022-08-19T14:03:38.117Z,3.90
2022-08-19T14:06:10.353Z,4.82
2022-08-19T14:08:46.220Z,4.43
2022-08-19T14:11:16.568Z,3.90
2022-08-19T14:13:46.362Z,5.60
2022-08-19T14:16:17.317Z,4.38
2022-08-19T14:18:45.046Z,4.57
2022-08-19T14:21:21.283Z,4.25
2022-08-19T14:23:51.434Z,5.05
2022-08-19T14:26:24.943Z,4.90
2022-08-19T14:28:58.931Z,4.20
2022-08-19T14:31:30.746Z,4.50
2022-08-19T14:34:03.450Z,5.22
2022-08-19T14:36:39.155Z,4.40
2022-08-19T14:39:10.756Z,4.43
2022-08-19T14:41:44.519Z,4.93
2022-08-19T14:44:13.962Z,3.03
2022-08-19T14:46:49.390Z,6.80
2022-08-19T14:49:22.044Z,3.85
2022-08-19T14:52:04.489Z,4.68
2022-08-19T14:54:31.230Z,7.60
2022-08-19T14:57:00.560Z,3.83
2022-08-19T14:59:33.140Z,3.65
2022-08-19T15:02:33.877Z,4.75
2022-08-19T15:04:58.970Z,3.70
2022-08-19T15:07:29.041Z,4.05
2022-08-19T15:09:56.975Z,4.32
2022-08-19T15:12:27.155Z,4.45
2022-08-19T15:14:57.131Z,4.82
2022-08-19T15:17:43.389Z,4.32
2022-08-19T15:20:18.732Z,4.15
2022-08-19T15:22:48.465Z,5.65
2022-08-19T15:25:17.440Z,5.30
2022-08-19T15:27:49.379Z,3.78
2022-08-19T15:30:20.643Z,5.22
2022-08-19T15:32:51.017Z,3.30
2022-08-19T15:35:19.605Z,3.53
2022-08-19T15:37:51.960Z,6.50
2022-08-19T15:40:21.572Z,3.80
2022-08-19T15:42:51.492Z,6.28
2022-08-19T15:45:19.123Z,3.13
2022-08-19T15:47:46.088Z,3.08
2022-08-19T15:50:26.803Z,3.95
2022-08-19T15:52:58.723Z,4.03
2022-08-19T15:55:34.225Z,4.10
2022-08-19T15:58:28.345Z,3.17
2022-08-19T16:01:20.911Z,5.70
2022-08-19T16:04:14.922Z,6.15
2022-08-19T16:06:46.291Z,3.75
2022-08-19T16:09:13.608Z,4.05
2022-08-19T16:11:46.296Z,3.25
2022-08-19T16:14:22.244Z,4.40
2022-08-19T16:16:57.527Z,4.07
2022-08-19T16:19:26.994Z,3.20
2022-08-19T16:21:58.713Z,3.17
2022-08-19T16:24:31.486Z,4.25
2022-08-19T16:27:01.747Z,4.70
2022-08-19T16:29:39.407Z,4.82
2022-08-19T16:32:16.488Z,3.97
2022-08-19T16:34:46.726Z,5.78
2022-08-19T16:37:18.828Z,4.00
2022-08-19T16:39:47.723Z,4.70
2022-08-19T16:42:15.072Z,3.42
2022-08-19T16:44:46.143Z,4.22
2022-08-19T16:47:14.422Z,6.68
2022-08-19T16:49:54.191Z,3.60
2022-08-19T16:52:26.659Z,3.90
2022-08-19T16:54:53.739Z,3.13
2022-08-19T16:57:24.001Z,2.92
2022-08-19T16:59:52.598Z,6.00
2022-08-19T17:02:22.873Z,3.97
2022-08-19T17:04:57.302Z,3.63
2022-08-19T17:07:32.146Z,5.35
2022-08-19T17:10:02.713Z,4.20
2022-08-19T17:12:32.546Z,3.88
2022-08-19T17:15:03.030Z,6.00
2022-08-19T17:17:30.529Z,5.57
2022-08-19T17:20:03.160Z,4.20
2022-08-19T17:22:32.307Z,3.53
2022-08-19T17:25:05.282Z,3.60
2022-08-19T17:27:32.588Z,3.90
2022-08-19T17:30:02.894Z,3.08
2022-08-19T17:32:30.232Z,7.75
2022-08-19T17:34:59.733Z,4.32
2022-08-19T17:37:29.890Z,3.47
2022-08-19T17:39:59.465Z,3.80
2022-08-19T17:42:26.757Z,4.13
2022-08-19T17:44:53.560Z,3.33
2022-08-19T17:47:23.606Z,3.30
2022-08-19T17:49:53.696Z,3.55
2022-08-19T17:52:23.326Z,2.38
2022-08-19T17:54:52.419Z,2.55
2022-08-19T17:57:19.171Z,3.33
2022-08-19T17:59:46.291Z,3.42
2022-08-19T18:02:15.959Z,2.72
2022-08-19T18:04:51.345Z,3.28
2022-08-19T18:07:21.696Z,3.78
2022-08-19T18:09:52.752Z,3.13
2022-08-19T18:12:28.835Z,1.77
2022-08-19T18:14:55.555Z,2.55
2022-08-19T18:17:23.884Z,4.53
2022-08-19T18:19:56.275Z,2.75
2022-08-19T18:22:26.112Z,2.47
2022-08-19T18:24:53.311Z,4.65
